Time;durP1;ratioP1;P1;durP2;ratioP2;P2;SDS_P1;SDS_P2;PMS_P1;PMS_P2;Temp;Humidity;BMP_temperature;BMP_pressure;BME280_temperature;BME280_humidity;BME280_pressure;Samples;Min_cycle;Max_cycle;Signal;HPM_P1;HPM_P2
2021/08/25 00:00:17;;;;;;;0.95;0.50;;;;;;;;;;5031669;28;20021;-43
2021/08/25 00:02:42;;;;;;;0.45;0.30;;;;;;;;;;5032563;28;20062;-43
2021/08/25 00:05:08;;;;;;;0.40;0.30;;;;;;;;;;5032693;28;20032;-43
2021/08/25 00:07:34;;;;;;;0.20;0.20;;;;;;;;;;5032506;28;20042;-43
2021/08/25 00:09:59;;;;;;;0.28;0.25;;;;;;;;;;5032768;28;20502;-43
2021/08/25 00:12:24;;;;;;;0.52;0.32;;;;;;;;;;5032349;28;20539;-43
2021/08/25 00:14:50;;;;;;;0.40;0.30;;;;;;;;;;5032715;28;20018;-43
2021/08/25 00:17:18;;;;;;;0.60;0.40;;;;;;;;;;5032401;28;20108;-43
2021/08/25 00:19:43;;;;;;;0.85;0.25;;;;;;;;;;5032570;28;20044;-43
2021/08/25 00:22:11;;;;;;;0.30;0.30;;;;;;;;;;5032156;28;20372;-43
2021/08/25 00:24:36;;;;;;;0.30;0.30;;;;;;;;;;5032326;28;20109;-43
2021/08/25 00:27:02;;;;;;;0.73;0.40;;;;;;;;;;5032260;28;20124;-43
2021/08/25 00:29:27;;;;;;;0.47;0.30;;;;;;;;;;5032141;28;20021;-43
2021/08/25 00:31:53;;;;;;;2.25;0.30;;;;;;;;;;5032215;28;20029;-43
2021/08/25 00:34:18;;;;;;;0.93;0.28;;;;;;;;;;5032178;28;20045;-43
2021/08/25 00:36:43;;;;;;;0.40;0.25;;;;;;;;;;5032359;28;20030;-44
2021/08/25 00:39:09;;;;;;;0.50;0.32;;;;;;;;;;5032365;28;20018;-43
2021/08/25 00:41:34;;;;;;;0.95;0.30;;;;;;;;;;5032306;28;20040;-43
2021/08/25 00:43:59;;;;;;;0.82;0.40;;;;;;;;;;5032167;28;20050;-43
2021/08/25 00:46:29;;;;;;;0.20;0.20;;;;;;;;;;5032027;28;20116;-43
2021/08/25 00:48:54;;;;;;;0.28;0.20;;;;;;;;;;5032429;28;20033;-43
2021/08/25 00:51:21;;;;;;;0.40;0.40;;;;;;;;;;5031978;28;20072;-43
2021/08/25 00:53:47;;;;;;;0.93;0.20;;;;;;;;;;5032032;28;20017;-43
2021/08/25 00:56:12;;;;;;;0.35;0.30;;;;;;;;;;5032055;28;20109;-43
2021/08/25 00:58:38;;;;;;;0.43;0.40;;;;;;;;;;5032187;28;20010;-43
2021/08/25 01:01:27;;;;;;;0.32;0.20;;;;;;;;;;5032011;28;20036;-44
2021/08/25 01:03:54;;;;;;;0.82;0.20;;;;;;;;;;5032221;28;20026;-43
2021/08/25 01:06:24;;;;;;;0.20;0.20;;;;;;;;;;5031902;28;20029;-43
2021/08/25 01:08:50;;;;;;;0.20;0.20;;;;;;;;;;5032075;28;20096;-43
2021/08/25 01:11:15;;;;;;;0.52;0.20;;;;;;;;;;5032270;28;20025;-43
2021/08/25 01:13:41;;;;;;;0.85;0.35;;;;;;;;;;5035674;28;20057;-43
2021/08/25 01:16:06;;;;;;;0.40;0.30;;;;;;;;;;5035484;28;20061;-43
2021/08/25 01:18:32;;;;;;;0.40;0.20;;;;;;;;;;5035547;28;20439;-43
2021/08/25 01:21:00;;;;;;;0.30;0.30;;;;;;;;;;5035866;28;20060;-43
2021/08/25 01:23:25;;;;;;;0.80;0.22;;;;;;;;;;5035629;28;20403;-43
2021/08/25 01:25:54;;;;;;;0.52;0.20;;;;;;;;;;5035459;28;20029;-44
2021/08/25 01:28:22;;;;;;;0.73;0.28;;;;;;;;;;5035334;28;20357;-43
2021/08/25 01:30:49;;;;;;;0.73;0.20;;;;;;;;;;5035330;28;20609;-43
2021/08/25 01:33:21;;;;;;;0.10;0.10;;;;;;;;;;5035250;28;20029;-43
2021/08/25 01:35:47;;;;;;;0.32;0.20;;;;;;;;;;5035271;28;20026;-43
2021/08/25 01:38:41;;;;;;;0.25;0.25;;;;;;;;;;5035408;28;20041;-43
2021/08/25 01:41:06;;;;;;;4.47;0.43;;;;;;;;;;5034094;28;20041;-43
2021/08/25 01:43:32;;;;;;;0.17;0.17;;;;;;;;;;5034890;28;20054;-43
2021/08/25 01:45:57;;;;;;;0.20;0.10;;;;;;;;;;5035346;28;20036;-43
2021/08/25 01:48:23;;;;;;;0.73;0.20;;;;;;;;;;5033931;28;20483;-43
2021/08/25 01:50:49;;;;;;;0.20;0.10;;;;;;;;;;5034952;28;20515;-43
2021/08/25 01:53:15;;;;;;;0.20;0.20;;;;;;;;;;5034866;28;20491;-43
2021/08/25 01:55:41;;;;;;;0.95;0.17;;;;;;;;;;5035200;28;20025;-43
2021/08/25 01:58:06;;;;;;;0.95;0.25;;;;;;;;;;5033564;28;20025;-43
2021/08/25 02:00:32;;;;;;;0.10;0.10;;;;;;;;;;5034923;28;20391;-43
2021/08/25 02:02:58;;;;;;;0.40;0.30;;;;;;;;;;5034787;28;20049;-43
2021/08/25 02:05:23;;;;;;;2.42;0.35;;;;;;;;;;5034643;28;20096;-42
2021/08/25 02:07:48;;;;;;;0.38;0.20;;;;;;;;;;5034855;28;20021;-43
2021/08/25 02:10:14;;;;;;;0.40;0.32;;;;;;;;;;5034507;28;20099;-43
2021/08/25 02:12:39;;;;;;;1.92;0.30;;;;;;;;;;5034508;28;20059;-43
2021/08/25 02:15:05;;;;;;;0.57;0.30;;;;;;;;;;5034534;28;20033;-43
2021/08/25 02:17:30;;;;;;;0.30;0.30;;;;;;;;;;5034767;28;20014;-43
2021/08/25 02:19:55;;;;;;;2.95;0.40;;;;;;;;;;5034611;28;20112;-43
2021/08/25 02:22:21;;;;;;;0.40;0.40;;;;;;;;;;5034241;28;20021;-43
2021/08/25 02:24:46;;;;;;;0.25;0.25;;;;;;;;;;5033834;28;20041;-43
2021/08/25 02:27:11;;;;;;;0.30;0.22;;;;;;;;;;5034067;28;20061;-43
2021/08/25 02:29:37;;;;;;;0.57;0.50;;;;;;;;;;5034259;28;20056;-43
2021/08/25 02:32:02;;;;;;;4.82;0.40;;;;;;;;;;5034516;28;20017;-43
2021/08/25 02:34:28;;;;;;;0.22;0.20;;;;;;;;;;5034028;28;20033;-43
2021/08/25 02:36:53;;;;;;;0.15;0.15;;;;;;;;;;5034398;28;20075;-43
2021/08/25 02:39:18;;;;;;;0.75;0.30;;;;;;;;;;5032989;28;20056;-43
2021/08/25 02:41:44;;;;;;;0.32;0.20;;;;;;;;;;5034271;28;20033;-43
2021/08/25 02:44:09;;;;;;;0.75;0.40;;;;;;;;;;5033754;28;20046;-43
2021/08/25 02:46:34;;;;;;;0.40;0.30;;;;;;;;;;5033939;28;20045;-43
2021/08/25 02:49:00;;;;;;;0.65;0.40;;;;;;;;;;5033802;28;20061;-42
2021/08/25 02:51:25;;;;;;;0.63;0.25;;;;;;;;;;5033760;28;20029;-43
2021/08/25 02:53:50;;;;;;;0.45;0.40;;;;;;;;;;5033818;28;20057;-43
2021/08/25 02:56:16;;;;;;;0.93;0.55;;;;;;;;;;5033667;28;20048;-43
2021/08/25 02:58:41;;;;;;;0.30;0.20;;;;;;;;;;5033649;28;20036;-43
2021/08/25 03:01:07;;;;;;;0.70;0.50;;;;;;;;;;5033654;28;20443;-42
2021/08/25 03:03:32;;;;;;;0.20;0.20;;;;;;;;;;5033774;28;20052;-44
2021/08/25 03:05:58;;;;;;;0.43;0.20;;;;;;;;;;5033543;28;20021;-43
2021/08/25 03:08:23;;;;;;;0.68;0.40;;;;;;;;;;5033172;28;20112;-43
2021/08/25 03:10:49;;;;;;;2.25;0.30;;;;;;;;;;5033292;28;20024;-43
2021/08/25 03:13:14;;;;;;;0.90;0.55;;;;;;;;;;5033420;28;20040;-44
2021/08/25 03:15:40;;;;;;;1.02;0.45;;;;;;;;;;5033609;28;20025;-43
2021/08/25 03:18:05;;;;;;;0.63;0.40;;;;;;;;;;5033382;28;20037;-43
2021/08/25 03:20:30;;;;;;;1.92;0.32;;;;;;;;;;5033230;28;20017;-43
2021/08/25 03:22:56;;;;;;;0.95;0.40;;;;;;;;;;5033464;28;20116;-43
2021/08/25 03:25:21;;;;;;;0.65;0.40;;;;;;;;;;5033182;28;20021;-43
2021/08/25 03:27:47;;;;;;;1.75;0.50;;;;;;;;;;5015512;28;20534;-43
2021/08/25 03:30:12;;;;;;;0.85;0.40;;;;;;;;;;5033159;28;20471;-43
2021/08/25 03:32:37;;;;;;;1.95;0.57;;;;;;;;;;5033099;28;20088;-43
2021/08/25 03:35:03;;;;;;;0.85;0.38;;;;;;;;;;5033143;28;20024;-43
2021/08/25 03:37:28;;;;;;;3.03;0.35;;;;;;;;;;5031739;28;20033;-44
2021/08/25 03:39:54;;;;;;;0.73;0.50;;;;;;;;;;5032979;28;20021;-43
2021/08/25 03:42:19;;;;;;;1.27;0.80;;;;;;;;;;5033136;28;20051;-43
2021/08/25 03:44:45;;;;;;;1.20;0.60;;;;;;;;;;5032725;28;20041;-43
2021/08/25 03:47:10;;;;;;;0.80;0.38;;;;;;;;;;5032645;28;20072;-43
2021/08/25 03:49:36;;;;;;;1.00;0.57;;;;;;;;;;5032806;28;20021;-42
2021/08/25 03:52:02;;;;;;;1.45;0.50;;;;;;;;;;5031498;28;20037;-43
2021/08/25 03:54:28;;;;;;;1.38;0.60;;;;;;;;;;5032945;28;20049;-43
2021/08/25 03:56:54;;;;;;;0.70;0.63;;;;;;;;;;5032804;28;20130;-43
2021/08/25 03:59:19;;;;;;;0.93;0.60;;;;;;;;;;5031249;28;20483;-43
2021/08/25 04:01:44;;;;;;;1.00;0.60;;;;;;;;;;5032949;28;20072;-43
2021/08/25 04:04:10;;;;;;;0.98;0.60;;;;;;;;;;5032827;28;20023;-43
2021/08/25 04:06:36;;;;;;;1.02;0.70;;;;;;;;;;5032450;28;20041;-42
2021/08/25 04:09:02;;;;;;;1.08;0.70;;;;;;;;;;5032534;28;20490;-43
2021/08/25 04:11:27;;;;;;;1.63;0.80;;;;;;;;;;5032721;28;20037;-44
2021/08/25 04:13:53;;;;;;;2.10;0.75;;;;;;;;;;5032482;28;20017;-42
2021/08/25 04:16:18;;;;;;;0.88;0.63;;;;;;;;;;5032380;28;20427;-43
2021/08/25 04:18:44;;;;;;;1.17;0.60;;;;;;;;;;5032423;28;20105;-43
2021/08/25 04:21:09;;;;;;;0.82;0.52;;;;;;;;;;5032242;28;20078;-43
2021/08/25 04:23:35;;;;;;;2.95;0.95;;;;;;;;;;5032386;28;20009;-43
2021/08/25 04:26:00;;;;;;;0.82;0.63;;;;;;;;;;5032288;28;20041;-43
2021/08/25 04:28:25;;;;;;;4.97;0.82;;;;;;;;;;5032126;28;20092;-43
2021/08/25 04:30:51;;;;;;;0.82;0.75;;;;;;;;;;5032588;28;20032;-43
2021/08/25 04:33:17;;;;;;;0.98;0.70;;;;;;;;;;5032506;28;20033;-43
2021/08/25 04:35:42;;;;;;;1.27;0.75;;;;;;;;;;5032259;28;20018;-43
2021/08/25 04:38:07;;;;;;;0.80;0.80;;;;;;;;;;5032485;28;20419;-43
2021/08/25 04:40:33;;;;;;;1.35;0.80;;;;;;;;;;5032471;28;20051;-43
2021/08/25 04:42:58;;;;;;;2.25;1.10;;;;;;;;;;5030706;28;20056;-43
2021/08/25 04:45:23;;;;;;;1.42;0.80;;;;;;;;;;5032238;28;20062;-43
2021/08/25 04:47:49;;;;;;;0.65;0.60;;;;;;;;;;5034763;28;20476;-42
2021/08/25 04:50:15;;;;;;;1.55;1.10;;;;;;;;;;5035844;28;20029;-43
2021/08/25 04:52:40;;;;;;;2.08;1.00;;;;;;;;;;5036386;28;20021;-43
2021/08/25 04:55:06;;;;;;;1.70;1.10;;;;;;;;;;5035940;28;20470;-43
2021/08/25 04:57:31;;;;;;;1.30;0.75;;;;;;;;;;5035799;28;20017;-42
2021/08/25 04:59:56;;;;;;;1.77;0.82;;;;;;;;;;5035904;28;20148;-43
2021/08/25 05:02:22;;;;;;;1.10;0.88;;;;;;;;;;5035819;28;20021;-42
2021/08/25 05:04:47;;;;;;;1.10;0.77;;;;;;;;;;5035833;28;20423;-43
2021/08/25 05:07:13;;;;;;;1.48;0.73;;;;;;;;;;5035960;28;20036;-43
2021/08/25 05:09:38;;;;;;;1.45;1.08;;;;;;;;;;5036021;28;20025;-43
2021/08/25 05:12:04;;;;;;;2.22;1.00;;;;;;;;;;5035690;28;20033;-43
2021/08/25 05:14:29;;;;;;;1.85;0.85;;;;;;;;;;5034467;28;20061;-42
2021/08/25 05:16:55;;;;;;;1.10;0.70;;;;;;;;;;5035865;28;20066;-43
2021/08/25 05:19:20;;;;;;;1.98;0.98;;;;;;;;;;5035753;28;20484;-43
2021/08/25 05:21:45;;;;;;;2.03;0.82;;;;;;;;;;5035582;28;20112;-43
2021/08/25 05:24:11;;;;;;;2.28;1.00;;;;;;;;;;5035635;28;20024;-44
2021/08/25 05:26:36;;;;;;;0.90;0.57;;;;;;;;;;5035681;28;20087;-42
2021/08/25 05:29:01;;;;;;;2.40;1.08;;;;;;;;;;5035530;28;20057;-42
2021/08/25 05:31:27;;;;;;;4.97;1.50;;;;;;;;;;5035268;28;20049;-42
2021/08/25 05:33:52;;;;;;;1.85;0.95;;;;;;;;;;5034735;28;20036;-42
2021/08/25 05:36:18;;;;;;;1.45;1.30;;;;;;;;;;5035422;28;20057;-42
2021/08/25 05:38:43;;;;;;;3.40;1.45;;;;;;;;;;5035242;28;20025;-42
2021/08/25 05:41:09;;;;;;;1.48;1.25;;;;;;;;;;5035494;28;20357;-42
2021/08/25 05:43:34;;;;;;;1.92;1.10;;;;;;;;;;5034989;28;20072;-42
2021/08/25 05:46:00;;;;;;;1.52;1.10;;;;;;;;;;5035034;28;20037;-43
2021/08/25 05:48:26;;;;;;;2.60;0.98;;;;;;;;;;5035214;28;20136;-42
2021/08/25 05:50:51;;;;;;;2.38;1.13;;;;;;;;;;5035033;28;20097;-43
2021/08/25 05:53:16;;;;;;;1.90;1.13;;;;;;;;;;5034597;28;20061;-43
2021/08/25 05:55:42;;;;;;;2.70;1.27;;;;;;;;;;5034940;28;20022;-43
2021/08/25 05:58:07;;;;;;;2.67;1.55;;;;;;;;;;5033820;28;20030;-43
2021/08/25 06:00:33;;;;;;;1.45;0.98;;;;;;;;;;5033414;28;20096;-43
2021/08/25 06:02:58;;;;;;;1.33;0.63;;;;;;;;;;5034764;28;20037;-43
2021/08/25 06:05:24;;;;;;;1.40;1.10;;;;;;;;;;5034755;28;20025;-43
2021/08/25 06:07:49;;;;;;;1.60;1.00;;;;;;;;;;5034773;28;20060;-43
2021/08/25 06:10:15;;;;;;;1.27;0.90;;;;;;;;;;5034595;28;20091;-44
2021/08/25 06:12:40;;;;;;;1.60;0.95;;;;;;;;;;5034888;28;20112;-42
2021/08/25 06:15:06;;;;;;;0.77;0.52;;;;;;;;;;5034571;28;20113;-43
2021/08/25 06:17:31;;;;;;;1.75;1.08;;;;;;;;;;5034553;28;20029;-42
2021/08/25 06:19:57;;;;;;;1.45;1.20;;;;;;;;;;5034671;28;20044;-43
2021/08/25 06:22:22;;;;;;;1.17;0.88;;;;;;;;;;5034558;28;20037;-43
2021/08/25 06:24:47;;;;;;;1.85;0.63;;;;;;;;;;5034392;28;20537;-43
2021/08/25 06:27:13;;;;;;;1.40;1.10;;;;;;;;;;5034177;28;20468;-43
2021/08/25 06:29:38;;;;;;;3.70;1.30;;;;;;;;;;5033354;28;20024;-43
2021/08/25 06:32:04;;;;;;;1.20;0.90;;;;;;;;;;5034504;28;20034;-42
2021/08/25 06:34:30;;;;;;;1.90;1.08;;;;;;;;;;5034389;28;20471;-42
2021/08/25 06:36:55;;;;;;;2.90;1.27;;;;;;;;;;5034105;28;20476;-43
2021/08/25 06:39:21;;;;;;;4.60;1.25;;;;;;;;;;5034241;28;20032;-43
2021/08/25 06:41:46;;;;;;;1.27;0.70;;;;;;;;;;5034383;28;20510;-43
2021/08/25 06:44:11;;;;;;;2.97;1.05;;;;;;;;;;5033722;28;20183;-43
2021/08/25 06:46:37;;;;;;;1.55;1.08;;;;;;;;;;5032608;28;20136;-43
2021/08/25 06:49:02;;;;;;;1.58;1.13;;;;;;;;;;5033912;28;20056;-43
2021/08/25 06:51:29;;;;;;;1.08;0.98;;;;;;;;;;5033964;28;20519;-43
2021/08/25 06:53:54;;;;;;;1.67;1.15;;;;;;;;;;5034433;28;20040;-43
2021/08/25 06:56:19;;;;;;;1.65;1.00;;;;;;;;;;5033632;28;20464;-43
2021/08/25 06:58:45;;;;;;;1.38;1.00;;;;;;;;;;5033715;28;20157;-43
2021/08/25 07:01:10;;;;;;;13.05;1.35;;;;;;;;;;5033610;28;20037;-43
2021/08/25 07:03:36;;;;;;;1.30;1.13;;;;;;;;;;5033473;28;20054;-43
2021/08/25 07:06:02;;;;;;;1.30;0.70;;;;;;;;;;5033827;28;20032;-43
2021/08/25 07:08:27;;;;;;;2.83;1.02;;;;;;;;;;5033382;28;20021;-42
2021/08/25 07:10:53;;;;;;;2.80;0.95;;;;;;;;;;5033350;28;20035;-43
2021/08/25 07:13:18;;;;;;;1.75;0.80;;;;;;;;;;5033318;28;20388;-43
2021/08/25 07:15:43;;;;;;;6.13;0.82;;;;;;;;;;5033493;28;20025;-43
2021/08/25 07:18:09;;;;;;;3.38;1.48;;;;;;;;;;5033261;28;20096;-43
2021/08/25 07:20:34;;;;;;;2.53;1.13;;;;;;;;;;5033339;28;20029;-43
2021/08/25 07:22:59;;;;;;;1.80;1.00;;;;;;;;;;5033579;28;20052;-43
2021/08/25 07:25:25;;;;;;;2.10;1.20;;;;;;;;;;5033074;28;20084;-44
2021/08/25 07:27:50;;;;;;;2.35;1.17;;;;;;;;;;5033125;28;20030;-43
2021/08/25 07:30:16;;;;;;;2.08;1.15;;;;;;;;;;5033089;28;20045;-46
2021/08/25 07:32:41;;;;;;;1.38;0.80;;;;;;;;;;5033084;28;20024;-42
2021/08/25 07:35:08;;;;;;;5.75;0.73;;;;;;;;;;5048440;28;20115;-43
2021/08/25 07:37:33;;;;;;;2.17;1.10;;;;;;;;;;5032934;28;20024;-43
2021/08/25 07:39:59;;;;;;;1.13;1.02;;;;;;;;;;5033180;28;20021;-43
2021/08/25 07:42:24;;;;;;;5.70;1.38;;;;;;;;;;5032838;28;20465;-42
2021/08/25 07:44:50;;;;;;;2.22;0.93;;;;;;;;;;5032849;28;20480;-43
2021/08/25 07:47:16;;;;;;;1.55;1.08;;;;;;;;;;5032624;28;20041;-43
2021/08/25 07:49:43;;;;;;;1.73;1.10;;;;;;;;;;5033040;28;20439;-42
2021/08/25 07:52:08;;;;;;;2.22;0.70;;;;;;;;;;5048165;28;20032;-43
2021/08/25 07:54:33;;;;;;;4.20;1.58;;;;;;;;;;5032627;28;20026;-43
2021/08/25 07:56:59;;;;;;;1.20;0.77;;;;;;;;;;5033039;28;20104;-43
2021/08/25 07:59:24;;;;;;;3.20;1.10;;;;;;;;;;5032529;28;20464;-42
2021/08/25 08:01:49;;;;;;;3.08;1.42;;;;;;;;;;5032658;28;20013;-43
2021/08/25 08:04:15;;;;;;;2.92;1.20;;;;;;;;;;5032575;28;20056;-43
2021/08/25 08:06:40;;;;;;;1.92;1.30;;;;;;;;;;5032484;28;20465;-43
2021/08/25 08:09:06;;;;;;;1.13;1.00;;;;;;;;;;5032488;28;20048;-42
2021/08/25 08:11:31;;;;;;;2.75;1.10;;;;;;;;;;5032695;28;20013;-43
2021/08/25 08:13:56;;;;;;;2.80;0.50;;;;;;;;;;5032506;28;20034;-43
2021/08/25 08:16:22;;;;;;;1.80;0.93;;;;;;;;;;5032681;28;20346;-43
2021/08/25 08:21:40;;;;;;;1.20;0.80;;;;;;;;;;5015693;28;20068;-42
2021/08/25 08:24:05;;;;;;;2.42;1.00;;;;;;;;;;5032320;28;20138;-43
2021/08/25 08:26:31;;;;;;;1.42;1.13;;;;;;;;;;5032251;28;20040;-43
2021/08/25 08:28:57;;;;;;;4.00;1.38;;;;;;;;;;5032256;28;20018;-43
2021/08/25 08:31:23;;;;;;;3.33;2.08;;;;;;;;;;5032190;28;20030;-42
2021/08/25 08:33:48;;;;;;;2.88;1.40;;;;;;;;;;5032395;28;20484;-43
2021/08/25 08:36:13;;;;;;;2.10;1.00;;;;;;;;;;5032103;28;20033;-44
2021/08/25 08:38:39;;;;;;;0.75;0.70;;;;;;;;;;5032164;28;20108;-43
2021/08/25 08:41:04;;;;;;;1.88;1.00;;;;;;;;;;5032525;28;20108;-43
2021/08/25 08:43:30;;;;;;;1.52;0.95;;;;;;;;;;5031941;28;20470;-43
2021/08/25 08:45:55;;;;;;;1.90;0.98;;;;;;;;;;5032483;28;20041;-43
2021/08/25 08:48:21;;;;;;;1.40;0.88;;;;;;;;;;5031969;28;20028;-43
2021/08/25 08:50:47;;;;;;;1.73;1.33;;;;;;;;;;5032108;28;20032;-46
2021/08/25 08:53:13;;;;;;;2.30;1.13;;;;;;;;;;5032132;28;20030;-43
2021/08/25 08:55:39;;;;;;;1.23;0.73;;;;;;;;;;5032120;28;20053;-43
2021/08/25 08:58:05;;;;;;;1.33;0.77;;;;;;;;;;5032285;28;20052;-43
2021/08/25 09:00:31;;;;;;;0.90;0.68;;;;;;;;;;5031930;28;20480;-43
2021/08/25 09:02:56;;;;;;;3.25;0.90;;;;;;;;;;5032079;28;20044;-43
2021/08/25 09:05:23;;;;;;;1.10;0.60;;;;;;;;;;5031896;28;20124;-43
2021/08/25 09:08:02;;;;;;;1.38;0.77;;;;;;;;;;5032125;28;20379;-43
2021/08/25 09:10:29;;;;;;;1.63;1.10;;;;;;;;;;5031863;28;20040;-43
2021/08/25 09:12:55;;;;;;;1.20;0.68;;;;;;;;;;5031812;28;20022;-44
2021/08/25 09:15:22;;;;;;;0.98;0.80;;;;;;;;;;5031945;28;20476;-43
2021/08/25 09:17:53;;;;;;;1.40;0.95;;;;;;;;;;5031913;28;20023;-43
2021/08/25 09:20:19;;;;;;;1.00;0.82;;;;;;;;;;5032004;28;20080;-43
2021/08/25 09:22:44;;;;;;;2.08;1.13;;;;;;;;;;5031853;28;20021;-43
2021/08/25 09:25:29;;;;;;;1.15;1.02;;;;;;;;;;5031900;28;20068;-43
2021/08/25 09:27:54;;;;;;;1.15;0.70;;;;;;;;;;5032022;28;20487;-43
2021/08/25 09:30:20;;;;;;;1.08;0.98;;;;;;;;;;5031637;28;20022;-43
2021/08/25 09:32:45;;;;;;;1.35;1.05;;;;;;;;;;5033293;28;20112;-44
2021/08/25 09:35:10;;;;;;;1.40;0.82;;;;;;;;;;5035310;28;20013;-43
2021/08/25 09:37:36;;;;;;;1.35;0.82;;;;;;;;;;5035471;28;20072;-43
2021/08/25 09:40:04;;;;;;;1.45;0.93;;;;;;;;;;5035206;28;20013;-43
2021/08/25 09:42:45;;;;;;;1.33;0.60;;;;;;;;;;5034956;28;20641;-43
2021/08/25 09:45:15;;;;;;;2.50;1.23;;;;;;;;;;5035249;28;20044;-43
2021/08/25 09:47:51;;;;;;;2.03;0.90;;;;;;;;;;5034942;28;20124;-43
2021/08/25 09:50:18;;;;;;;1.38;0.95;;;;;;;;;;5035039;28;20033;-44
2021/08/25 09:52:44;;;;;;;2.78;0.70;;;;;;;;;;5035148;28;20021;-43
2021/08/25 09:55:10;;;;;;;0.77;0.50;;;;;;;;;;5035069;28;20021;-43
2021/08/25 09:57:37;;;;;;;2.20;1.02;;;;;;;;;;5035047;28;20436;-43
2021/08/25 10:00:03;;;;;;;0.95;0.77;;;;;;;;;;5034935;28;20083;-43
2021/08/25 10:02:37;;;;;;;0.70;0.52;;;;;;;;;;5034756;28;20037;-43
2021/08/25 10:05:22;;;;;;;1.10;0.98;;;;;;;;;;5034809;28;20033;-43
2021/08/25 10:07:48;;;;;;;0.60;0.60;;;;;;;;;;5034883;28;20037;-43
2021/08/25 10:10:13;;;;;;;8.27;1.17;;;;;;;;;;5034716;28;20828;-43
2021/08/25 10:12:39;;;;;;;1.25;1.10;;;;;;;;;;5034809;28;20087;-43
2021/08/25 10:15:24;;;;;;;1.38;0.82;;;;;;;;;;5034697;28;20032;-43
2021/08/25 10:17:50;;;;;;;0.90;0.63;;;;;;;;;;5034424;28;20040;-43
2021/08/25 10:20:24;;;;;;;1.35;0.88;;;;;;;;;;5034486;28;20021;-43
2021/08/25 10:22:50;;;;;;;1.65;0.90;;;;;;;;;;5034701;28;20029;-43
2021/08/25 10:25:16;;;;;;;1.60;0.95;;;;;;;;;;5034340;28;20423;-43
2021/08/25 10:28:00;;;;;;;1.38;0.80;;;;;;;;;;5032979;28;20045;-43
2021/08/25 10:30:25;;;;;;;1.23;0.85;;;;;;;;;;5034190;28;20488;-43
2021/08/25 10:32:50;;;;;;;2.42;0.65;;;;;;;;;;5034315;28;20022;-43
2021/08/25 10:35:16;;;;;;;1.33;0.60;;;;;;;;;;5034382;28;20052;-43
2021/08/25 10:37:41;;;;;;;2.45;0.85;;;;;;;;;;5034404;28;20456;-44
2021/08/25 10:40:08;;;;;;;1.50;0.70;;;;;;;;;;5034372;28;20541;-44
2021/08/25 10:42:54;;;;;;;2.75;0.73;;;;;;;;;;5034144;28;20021;-43
2021/08/25 10:45:38;;;;;;;1.27;0.90;;;;;;;;;;5033106;28;20033;-44
2021/08/25 10:48:08;;;;;;;1.42;1.00;;;;;;;;;;5034126;28;20041;-43
2021/08/25 10:50:49;;;;;;;1.40;1.00;;;;;;;;;;5033855;28;20018;-43
2021/08/25 10:53:40;;;;;;;1.23;0.82;;;;;;;;;;5033807;28;20073;-43
2021/08/25 10:56:10;;;;;;;1.50;0.77;;;;;;;;;;5033509;28;20477;-43
2021/08/25 10:58:41;;;;;;;1.38;0.82;;;;;;;;;;5033569;28;20029;-43
2021/08/25 11:01:19;;;;;;;3.00;0.77;;;;;;;;;;5033765;28;20036;-43
2021/08/25 11:03:48;;;;;;;1.13;0.60;;;;;;;;;;5033778;28;20030;-42
2021/08/25 11:06:26;;;;;;;1.02;0.80;;;;;;;;;;5033817;28;20033;-43
2021/08/25 11:08:51;;;;;;;0.93;0.70;;;;;;;;;;5033302;28;20502;-44
2021/08/25 11:11:17;;;;;;;1.08;0.82;;;;;;;;;;5033402;28;20018;-43
2021/08/25 11:13:42;;;;;;;1.00;0.85;;;;;;;;;;5033410;28;20029;-43
2021/08/25 11:16:23;;;;;;;2.17;0.88;;;;;;;;;;5033454;28;20100;-42
2021/08/25 11:18:49;;;;;;;1.77;0.95;;;;;;;;;;5033683;28;20052;-43
2021/08/25 11:21:14;;;;;;;2.85;0.98;;;;;;;;;;5033564;28;20460;-43
2021/08/25 11:23:55;;;;;;;2.63;1.05;;;;;;;;;;5033240;28;20373;-42
2021/08/25 11:26:21;;;;;;;1.50;0.85;;;;;;;;;;5033054;28;20041;-43
2021/08/25 11:28:47;;;;;;;1.15;0.95;;;;;;;;;;5033177;28;20021;-43
2021/08/25 11:31:26;;;;;;;1.80;1.27;;;;;;;;;;5033098;28;20032;-42
2021/08/25 11:33:52;;;;;;;0.90;0.70;;;;;;;;;;5033136;28;20029;-43
2021/08/25 11:36:18;;;;;;;2.25;1.05;;;;;;;;;;5032838;28;20075;-43
2021/08/25 11:38:43;;;;;;;0.82;0.80;;;;;;;;;;5032789;28;20116;-43
2021/08/25 11:41:09;;;;;;;1.40;1.10;;;;;;;;;;5032955;28;20096;-42
2021/08/25 11:43:45;;;;;;;0.93;0.73;;;;;;;;;;5032443;28;20053;-43
2021/08/25 11:46:10;;;;;;;1.98;1.10;;;;;;;;;;5032837;28;20116;-43
2021/08/25 11:48:36;;;;;;;0.95;0.85;;;;;;;;;;5032700;28;20104;-42
2021/08/25 11:51:01;;;;;;;1.90;1.10;;;;;;;;;;5032818;28;20388;-43
2021/08/25 11:53:28;;;;;;;1.40;0.77;;;;;;;;;;5032706;28;20021;-43
2021/08/25 11:55:55;;;;;;;3.90;0.60;;;;;;;;;;5032669;28;20124;-42
2021/08/25 11:58:23;;;;;;;1.55;0.95;;;;;;;;;;5032559;28;20032;-44
2021/08/25 12:00:48;;;;;;;1.75;1.10;;;;;;;;;;5032885;28;20566;-42
2021/08/25 12:03:14;;;;;;;1.30;0.75;;;;;;;;;;5032898;28;20014;-42
2021/08/25 12:05:40;;;;;;;2.13;1.25;;;;;;;;;;5032531;28;20112;-42
2021/08/25 12:08:13;;;;;;;0.95;0.80;;;;;;;;;;5032794;28;20571;-43
2021/08/25 12:10:45;;;;;;;1.08;1.00;;;;;;;;;;5032316;28;20033;-43
2021/08/25 12:13:28;;;;;;;3.95;1.27;;;;;;;;;;5032337;28;20034;-43
2021/08/25 12:15:56;;;;;;;1.85;1.05;;;;;;;;;;5032427;28;20033;-43
2021/08/25 12:18:22;;;;;;;1.85;0.95;;;;;;;;;;5032023;28;20028;-43
2021/08/25 12:20:50;;;;;;;1.02;0.93;;;;;;;;;;5032709;28;20387;-43
2021/08/25 12:23:16;;;;;;;1.67;1.25;;;;;;;;;;5032680;28;20022;-44
2021/08/25 12:25:44;;;;;;;2.85;1.20;;;;;;;;;;5032290;28;20041;-43
2021/08/25 12:28:10;;;;;;;4.15;1.25;;;;;;;;;;5031644;28;20028;-42
2021/08/25 12:30:37;;;;;;;2.35;0.88;;;;;;;;;;5031824;28;20076;-43
2021/08/25 12:33:05;;;;;;;2.17;1.10;;;;;;;;;;5032268;28;20025;-42
2021/08/25 12:35:35;;;;;;;2.88;1.10;;;;;;;;;;5032488;28;20029;-43
2021/08/25 12:38:01;;;;;;;1.05;0.90;;;;;;;;;;5032168;28;20039;-43
2021/08/25 12:40:29;;;;;;;2.95;1.55;;;;;;;;;;5032165;28;20539;-43
2021/08/25 12:42:54;;;;;;;1.40;1.00;;;;;;;;;;5032250;28;20044;-43
2021/08/25 12:45:20;;;;;;;1.55;1.10;;;;;;;;;;5032065;28;20392;-42
2021/08/25 12:47:50;;;;;;;1.30;1.20;;;;;;;;;;5032356;28;20091;-44
2021/08/25 12:50:16;;;;;;;5.35;1.23;;;;;;;;;;5032402;28;20379;-44
2021/08/25 12:52:41;;;;;;;2.67;1.77;;;;;;;;;;5032265;28;20372;-43
2021/08/25 12:55:09;;;;;;;2.25;1.55;;;;;;;;;;5032415;28;20026;-43
2021/08/25 12:57:34;;;;;;;0.85;0.73;;;;;;;;;;5032051;28;20021;-44
2021/08/25 13:00:00;;;;;;;2.22;1.15;;;;;;;;;;5031960;28;20112;-43
2021/08/25 13:02:25;;;;;;;1.50;0.93;;;;;;;;;;5032220;28;20044;-43
2021/08/25 13:04:50;;;;;;;1.90;1.20;;;;;;;;;;5031977;28;20029;-43
2021/08/25 13:07:16;;;;;;;1.38;1.10;;;;;;;;;;5032491;28;20029;-43
2021/08/25 13:09:42;;;;;;;1.20;0.98;;;;;;;;;;5035681;28;20039;-43
2021/08/25 13:12:07;;;;;;;1.75;0.95;;;;;;;;;;5035733;28;20037;-43
2021/08/25 13:14:33;;;;;;;1.10;0.90;;;;;;;;;;5035923;28;20026;-43
2021/08/25 13:16:58;;;;;;;1.83;0.90;;;;;;;;;;5035696;28;20456;-43
2021/08/25 13:19:23;;;;;;;2.30;1.33;;;;;;;;;;5035522;28;20032;-43
2021/08/25 13:21:49;;;;;;;1.52;1.27;;;;;;;;;;5035823;28;20048;-43
2021/08/25 13:24:14;;;;;;;1.70;1.10;;;;;;;;;;5035551;28;20111;-43
2021/08/25 13:26:40;;;;;;;1.73;1.10;;;;;;;;;;5035339;28;20035;-43
2021/08/25 13:29:05;;;;;;;4.70;1.40;;;;;;;;;;5035337;28;20030;-43
2021/08/25 13:31:31;;;;;;;1.33;0.90;;;;;;;;;;5035553;28;20013;-43
2021/08/25 13:33:56;;;;;;;1.90;1.02;;;;;;;;;;5035398;28;20056;-43
2021/08/25 13:36:24;;;;;;;1.88;1.25;;;;;;;;;;5035379;28;20044;-43
2021/08/25 13:38:49;;;;;;;2.90;1.30;;;;;;;;;;5035256;28;20076;-43
2021/08/25 13:41:15;;;;;;;2.63;1.45;;;;;;;;;;5035336;28;20041;-44
2021/08/25 13:43:40;;;;;;;1.73;1.23;;;;;;;;;;5034921;28;20053;-42
2021/08/25 13:46:06;;;;;;;2.13;1.58;;;;;;;;;;5035157;28;20026;-43
2021/08/25 13:48:31;;;;;;;4.82;1.60;;;;;;;;;;5035209;28;20546;-42
2021/08/25 13:50:56;;;;;;;2.28;1.30;;;;;;;;;;5035330;28;20491;-43
2021/08/25 13:53:22;;;;;;;2.03;1.20;;;;;;;;;;5035186;28;20029;-41
2021/08/25 13:55:47;;;;;;;2.20;1.40;;;;;;;;;;5035000;28;20457;-43
2021/08/25 13:58:13;;;;;;;2.03;1.23;;;;;;;;;;5034826;28;20041;-42
2021/08/25 14:00:38;;;;;;;3.00;1.40;;;;;;;;;;5034700;28;20017;-42
2021/08/25 14:03:04;;;;;;;1.88;1.25;;;;;;;;;;5034867;28;20026;-43
2021/08/25 14:05:29;;;;;;;1.85;1.35;;;;;;;;;;5034775;28;20630;-42
2021/08/25 14:07:55;;;;;;;1.65;1.17;;;;;;;;;;5034614;28;20041;-43
2021/08/25 14:10:20;;;;;;;2.30;1.50;;;;;;;;;;5034643;28;20025;-42
2021/08/25 14:12:45;;;;;;;3.58;1.30;;;;;;;;;;5034623;28;20108;-43
2021/08/25 14:15:11;;;;;;;2.72;1.63;;;;;;;;;;5034606;28;20052;-42
2021/08/25 14:17:36;;;;;;;4.13;1.83;;;;;;;;;;5049688;28;20041;-42
2021/08/25 14:20:02;;;;;;;2.25;1.30;;;;;;;;;;5032122;28;20025;-43
2021/08/25 14:22:28;;;;;;;6.63;1.40;;;;;;;;;;5034548;28;20575;-42
2021/08/25 14:24:53;;;;;;;1.58;1.10;;;;;;;;;;5034419;28;20049;-43
2021/08/25 14:27:19;;;;;;;1.70;0.98;;;;;;;;;;5034169;28;20516;-43
2021/08/25 14:29:44;;;;;;;1.92;1.10;;;;;;;;;;5034749;28;20013;-43
2021/08/25 14:32:10;;;;;;;3.15;1.60;;;;;;;;;;5033521;28;20112;-43
2021/08/25 14:34:35;;;;;;;3.42;1.70;;;;;;;;;;5034509;28;20014;-43
2021/08/25 14:37:01;;;;;;;3.03;1.90;;;;;;;;;;5034430;28;20029;-42
2021/08/25 14:39:26;;;;;;;2.40;1.33;;;;;;;;;;5034072;28;20049;-42
2021/08/25 14:41:51;;;;;;;2.53;1.40;;;;;;;;;;5034213;28;20078;-43